Time;durP1;ratioP1;P1;durP2;ratioP2;P2;SDS_P1;SDS_P2;PMS_P1;PMS_P2;Temp;Humidity;BMP_temperature;BMP_pressure;BME280_temperature;BME280_humidity;BME280_pressure;Samples;Min_cycle;Max_cycle;Signal;HPM_P1;HPM_P2
2022/03/08 00:01:59;;;;;;;7.03;4.80;;;;;;;;;;4981230;28;20809;-56
2022/03/08 00:04:25;;;;;;;7.07;4.80;;;;;;;;;;4981406;28;20117;-54
2022/03/08 00:06:51;;;;;;;7.00;5.03;;;;;;;;;;4980337;28;21125;-55
2022/03/08 00:09:16;;;;;;;7.25;4.78;;;;;;;;;;4981196;28;20073;-55
2022/03/08 00:11:41;;;;;;;7.07;5.03;;;;;;;;;;4981167;28;20029;-54
2022/03/08 00:14:06;;;;;;;8.48;5.22;;;;;;;;;;4981179;28;20295;-56
2022/03/08 00:16:32;;;;;;;7.97;5.43;;;;;;;;;;4980767;28;20495;-60
2022/03/08 00:18:57;;;;;;;7.10;4.80;;;;;;;;;;4981287;28;20551;-57
2022/03/08 00:21:22;;;;;;;8.20;5.00;;;;;;;;;;4981151;28;20480;-55
2022/03/08 00:23:50;;;;;;;7.60;5.13;;;;;;;;;;4981146;28;20270;-55
2022/03/08 00:26:16;;;;;;;7.38;4.65;;;;;;;;;;4981006;28;20031;-55
2022/03/08 00:28:41;;;;;;;6.88;4.90;;;;;;;;;;4981133;28;20061;-55
2022/03/08 00:31:06;;;;;;;6.65;4.90;;;;;;;;;;4981084;28;20572;-57
2022/03/08 00:33:31;;;;;;;6.17;4.27;;;;;;;;;;4980985;28;20030;-57
2022/03/08 00:35:57;;;;;;;6.27;4.23;;;;;;;;;;4980750;28;20297;-55
2022/03/08 00:38:22;;;;;;;7.82;5.18;;;;;;;;;;4980918;28;20046;-56
2022/03/08 00:40:47;;;;;;;6.97;4.57;;;;;;;;;;4981358;28;20037;-54
2022/03/08 00:43:12;;;;;;;7.03;5.20;;;;;;;;;;4981255;28;20028;-59
2022/03/08 00:45:38;;;;;;;7.33;5.10;;;;;;;;;;4980246;28;20109;-56
2022/03/08 00:48:03;;;;;;;7.07;4.70;;;;;;;;;;4981068;28;20026;-61
2022/03/08 00:50:29;;;;;;;6.47;4.53;;;;;;;;;;4981220;28;20022;-62
2022/03/08 00:52:54;;;;;;;7.60;5.00;;;;;;;;;;4980912;28;20658;-58
2022/03/08 00:55:20;;;;;;;6.25;4.22;;;;;;;;;;4980882;28;20027;-61
2022/03/08 00:57:45;;;;;;;7.85;4.88;;;;;;;;;;4983403;28;20558;-61
2022/03/08 01:00:11;;;;;;;6.45;4.53;;;;;;;;;;4984894;28;20503;-61
2022/03/08 01:02:36;;;;;;;6.80;4.70;;;;;;;;;;4984579;28;20894;-60
2022/03/08 01:05:02;;;;;;;6.97;4.63;;;;;;;;;;4984804;28;20660;-62
2022/03/08 01:07:27;;;;;;;6.90;4.97;;;;;;;;;;4984619;28;20027;-61
2022/03/08 01:09:52;;;;;;;6.80;4.57;;;;;;;;;;4983140;28;20019;-61
2022/03/08 01:12:17;;;;;;;6.90;4.47;;;;;;;;;;4984680;28;20508;-62
2022/03/08 01:14:43;;;;;;;6.67;4.63;;;;;;;;;;4984448;28;20033;-61
2022/03/08 01:17:08;;;;;;;6.30;4.40;;;;;;;;;;4983877;28;20297;-61
2022/03/08 01:19:33;;;;;;;6.00;4.30;;;;;;;;;;4984909;28;20673;-61
2022/03/08 01:21:58;;;;;;;6.90;4.82;;;;;;;;;;4982662;28;20911;-59
2022/03/08 01:24:23;;;;;;;7.10;4.90;;;;;;;;;;4983934;28;20038;-61
2022/03/08 01:26:49;;;;;;;5.83;4.67;;;;;;;;;;4983827;28;20623;-61
2022/03/08 01:29:14;;;;;;;7.67;4.80;;;;;;;;;;4982853;28;20748;-61
2022/03/08 01:31:39;;;;;;;6.78;4.45;;;;;;;;;;4983711;28;20565;-62
2022/03/08 01:34:04;;;;;;;7.13;4.77;;;;;;;;;;4983948;28;20149;-61
2022/03/08 01:36:30;;;;;;;6.10;4.40;;;;;;;;;;4983797;28;20795;-62
2022/03/08 01:38:55;;;;;;;5.97;4.40;;;;;;;;;;4983796;28;20038;-60
2022/03/08 01:41:20;;;;;;;6.63;4.43;;;;;;;;;;4982047;28;20282;-59
2022/03/08 01:43:45;;;;;;;7.25;5.03;;;;;;;;;;4983739;28;20309;-61
2022/03/08 01:46:11;;;;;;;6.33;4.37;;;;;;;;;;4983208;28;20026;-60
2022/03/08 01:48:37;;;;;;;5.80;4.38;;;;;;;;;;4983632;28;20277;-61
2022/03/08 01:51:02;;;;;;;5.27;4.00;;;;;;;;;;4983553;28;20037;-60
2022/03/08 01:53:27;;;;;;;5.63;3.92;;;;;;;;;;4983895;28;20711;-60
2022/03/08 01:55:53;;;;;;;5.40;4.30;;;;;;;;;;4983297;28;20530;-62
2022/03/08 01:58:18;;;;;;;7.30;4.70;;;;;;;;;;4982080;28;20033;-62
2022/03/08 02:00:43;;;;;;;6.30;4.40;;;;;;;;;;4983274;28;20018;-62
2022/03/08 02:03:08;;;;;;;6.45;4.45;;;;;;;;;;4983128;28;20023;-60
2022/03/08 02:05:34;;;;;;;6.47;4.40;;;;;;;;;;4984333;28;20882;-60
2022/03/08 02:07:59;;;;;;;5.82;4.32;;;;;;;;;;4982063;28;20776;-62
2022/03/08 02:10:24;;;;;;;6.17;4.63;;;;;;;;;;4990556;28;20029;-61
2022/03/08 02:12:49;;;;;;;5.63;4.43;;;;;;;;;;5003945;28;20272;-62
2022/03/08 02:15:16;;;;;;;6.07;4.37;;;;;;;;;;5003241;28;20045;-61
2022/03/08 02:17:41;;;;;;;5.75;4.20;;;;;;;;;;4985830;28;20296;-62
2022/03/08 02:20:07;;;;;;;6.05;4.38;;;;;;;;;;4983436;28;20030;-63
2022/03/08 02:22:32;;;;;;;5.72;4.25;;;;;;;;;;4983247;28;20022;-60
2022/03/08 02:24:58;;;;;;;6.22;4.28;;;;;;;;;;4983097;28;20045;-60
2022/03/08 02:27:23;;;;;;;5.63;3.97;;;;;;;;;;4982816;28;20029;-62
2022/03/08 02:29:48;;;;;;;6.57;4.17;;;;;;;;;;4981451;28;20497;-63
2022/03/08 02:32:13;;;;;;;6.00;4.20;;;;;;;;;;4981925;28;20714;-61
2022/03/08 02:34:39;;;;;;;6.30;4.30;;;;;;;;;;4982531;28;20500;-63
2022/03/08 02:37:07;;;;;;;6.10;4.47;;;;;;;;;;4982444;28;20045;-60
2022/03/08 02:39:33;;;;;;;5.65;4.20;;;;;;;;;;4982430;28;20375;-58
2022/03/08 02:41:58;;;;;;;6.53;4.38;;;;;;;;;;4982441;28;22449;-61
2022/03/08 02:44:24;;;;;;;6.13;4.17;;;;;;;;;;4982415;28;20105;-62
2022/03/08 02:46:50;;;;;;;6.40;4.20;;;;;;;;;;4981732;28;20269;-59
2022/03/08 02:49:15;;;;;;;5.55;4.00;;;;;;;;;;4982557;28;20033;-62
2022/03/08 02:51:40;;;;;;;5.47;4.13;;;;;;;;;;4982183;28;20416;-61
2022/03/08 02:54:05;;;;;;;5.67;4.10;;;;;;;;;;4982615;28;20308;-61
2022/03/08 02:56:31;;;;;;;6.33;4.17;;;;;;;;;;4981952;28;20096;-59
2022/03/08 02:58:56;;;;;;;5.83;4.03;;;;;;;;;;4982389;28;20289;-61
2022/03/08 03:01:21;;;;;;;5.90;4.30;;;;;;;;;;4981856;28;20269;-59
2022/03/08 03:03:47;;;;;;;6.50;4.47;;;;;;;;;;4982379;28;20032;-59
2022/03/08 03:06:12;;;;;;;5.45;3.95;;;;;;;;;;4982077;28;20280;-62
2022/03/08 03:08:37;;;;;;;6.00;4.00;;;;;;;;;;4981043;28;20066;-62
2022/03/08 03:11:02;;;;;;;6.67;4.13;;;;;;;;;;4982102;28;20278;-56
2022/03/08 03:13:27;;;;;;;6.00;4.03;;;;;;;;;;4982170;28;20834;-61
2022/03/08 03:15:53;;;;;;;7.00;4.50;;;;;;;;;;4981668;28;20050;-57
2022/03/08 03:18:18;;;;;;;5.70;4.30;;;;;;;;;;4981866;28;20297;-60
2022/03/08 03:20:43;;;;;;;6.03;4.77;;;;;;;;;;4981584;28;20037;-60
2022/03/08 03:23:08;;;;;;;5.53;4.30;;;;;;;;;;4981750;28;20076;-61
2022/03/08 03:25:34;;;;;;;5.77;4.40;;;;;;;;;;4982011;28;20057;-60
2022/03/08 03:27:59;;;;;;;5.38;4.20;;;;;;;;;;4981757;28;20355;-59
2022/03/08 03:30:24;;;;;;;6.55;4.18;;;;;;;;;;4981923;28;20018;-62
2022/03/08 03:32:49;;;;;;;6.05;4.25;;;;;;;;;;4981787;28;20023;-61
2022/03/08 03:35:15;;;;;;;6.33;4.27;;;;;;;;;;4981698;28;20022;-62
2022/03/08 03:37:40;;;;;;;6.07;4.05;;;;;;;;;;4981436;28;20751;-59
2022/03/08 03:40:06;;;;;;;5.88;3.95;;;;;;;;;;4980435;28;20089;-59
2022/03/08 03:42:31;;;;;;;6.50;4.57;;;;;;;;;;4981714;28;20019;-60
2022/03/08 03:44:56;;;;;;;5.85;4.22;;;;;;;;;;4981447;28;20120;-61
2022/03/08 03:47:22;;;;;;;5.32;4.15;;;;;;;;;;4981376;28;20542;-59
2022/03/08 03:49:47;;;;;;;5.32;4.30;;;;;;;;;;4981077;28;20137;-60
2022/03/08 03:52:12;;;;;;;5.65;4.20;;;;;;;;;;4981937;28;20019;-63
2022/03/08 03:54:37;;;;;;;5.30;4.10;;;;;;;;;;4981955;28;20551;-63
2022/03/08 03:57:03;;;;;;;5.53;4.20;;;;;;;;;;4981512;28;20828;-62
2022/03/08 03:59:28;;;;;;;4.82;3.55;;;;;;;;;;4981276;28;20625;-60
2022/03/08 04:01:53;;;;;;;6.30;4.57;;;;;;;;;;4980698;28;20407;-61
2022/03/08 04:04:18;;;;;;;5.60;4.03;;;;;;;;;;4981450;28;20026;-58
2022/03/08 04:06:44;;;;;;;6.00;4.33;;;;;;;;;;4981324;28;21074;-60
2022/03/08 04:09:09;;;;;;;5.20;3.90;;;;;;;;;;4980875;28;20563;-61
2022/03/08 04:11:34;;;;;;;5.80;4.00;;;;;;;;;;4981394;28;20026;-63
2022/03/08 04:13:59;;;;;;;5.97;4.30;;;;;;;;;;4981457;28;20098;-62
2022/03/08 04:16:25;;;;;;;6.00;4.43;;;;;;;;;;4980419;28;20428;-63
2022/03/08 04:18:50;;;;;;;5.78;4.10;;;;;;;;;;4981411;28;20034;-63
2022/03/08 04:21:15;;;;;;;5.90;3.93;;;;;;;;;;4981604;28;20084;-63
2022/03/08 04:23:40;;;;;;;6.13;4.73;;;;;;;;;;4981049;28;20288;-59
2022/03/08 04:26:06;;;;;;;5.57;4.20;;;;;;;;;;4980732;28;20033;-63
2022/03/08 04:28:31;;;;;;;6.07;4.15;;;;;;;;;;4981237;28;20762;-58
2022/03/08 04:30:56;;;;;;;6.37;4.20;;;;;;;;;;4981120;28;20473;-54
2022/03/08 04:33:21;;;;;;;5.00;3.73;;;;;;;;;;4984852;28;20292;-57
2022/03/08 04:35:47;;;;;;;5.40;3.80;;;;;;;;;;4984393;28;20870;-59
2022/03/08 04:38:12;;;;;;;6.05;4.20;;;;;;;;;;4984674;28;20464;-59
2022/03/08 04:40:37;;;;;;;5.10;4.00;;;;;;;;;;4985274;28;20505;-58
2022/03/08 04:43:02;;;;;;;4.80;3.73;;;;;;;;;;4985143;28;20840;-57
2022/03/08 04:45:28;;;;;;;4.77;3.67;;;;;;;;;;4984533;28;20269;-58
2022/03/08 04:47:53;;;;;;;5.53;3.92;;;;;;;;;;4984436;28;20280;-64
2022/03/08 04:50:18;;;;;;;4.97;3.90;;;;;;;;;;4984711;28;20041;-57
2022/03/08 04:52:44;;;;;;;5.32;3.65;;;;;;;;;;4981130;28;20355;-59
2022/03/08 04:55:09;;;;;;;5.50;3.72;;;;;;;;;;4976188;28;20018;-62
2022/03/08 04:57:34;;;;;;;5.15;3.63;;;;;;;;;;4980917;28;20026;-64
2022/03/08 05:00:00;;;;;;;5.67;3.70;;;;;;;;;;4982805;28;20130;-61
2022/03/08 05:02:25;;;;;;;5.13;3.63;;;;;;;;;;4984256;28;20273;-64
2022/03/08 05:04:50;;;;;;;5.18;3.65;;;;;;;;;;4982809;28;20061;-59
2022/03/08 05:07:15;;;;;;;5.07;3.92;;;;;;;;;;4981275;28;20818;-61
2022/03/08 05:09:41;;;;;;;5.73;4.13;;;;;;;;;;4983702;28;20014;-60
2022/03/08 05:12:08;;;;;;;5.38;3.90;;;;;;;;;;4972613;28;20272;-61
2022/03/08 05:14:33;;;;;;;5.50;3.80;;;;;;;;;;4983256;28;20029;-63
2022/03/08 05:16:58;;;;;;;5.32;3.80;;;;;;;;;;4982244;28;20042;-57
2022/03/08 05:19:23;;;;;;;5.67;3.90;;;;;;;;;;4982544;28;20725;-60
2022/03/08 05:21:49;;;;;;;5.03;3.53;;;;;;;;;;4982774;28;20493;-61
2022/03/08 05:24:14;;;;;;;5.47;3.90;;;;;;;;;;4983379;28;20497;-60
2022/03/08 05:26:39;;;;;;;5.80;4.10;;;;;;;;;;4983214;28;20019;-57
2022/03/08 05:29:05;;;;;;;4.70;3.60;;;;;;;;;;4982636;28;20032;-60
2022/03/08 05:31:30;;;;;;;5.95;4.30;;;;;;;;;;4983661;28;20026;-62
2022/03/08 05:33:55;;;;;;;6.67;4.63;;;;;;;;;;4982914;28;20022;-57
2022/03/08 05:36:21;;;;;;;4.97;3.77;;;;;;;;;;4973313;28;20038;-59
2022/03/08 05:38:46;;;;;;;5.23;4.03;;;;;;;;;;4979331;28;20049;-60
2022/03/08 05:41:11;;;;;;;5.00;3.97;;;;;;;;;;4982789;28;20025;-64
2022/03/08 05:43:36;;;;;;;4.77;3.87;;;;;;;;;;4982934;28;20289;-58
2022/03/08 05:46:01;;;;;;;5.77;3.90;;;;;;;;;;4983124;28;21156;-57
2022/03/08 05:48:27;;;;;;;5.30;4.00;;;;;;;;;;4983805;28;20275;-62
2022/03/08 05:50:52;;;;;;;4.97;4.07;;;;;;;;;;4983557;28;20055;-61
2022/03/08 05:53:17;;;;;;;5.43;4.00;;;;;;;;;;4983616;28;20026;-59
2022/03/08 05:55:42;;;;;;;5.40;4.13;;;;;;;;;;4983523;28;20026;-60
2022/03/08 05:58:07;;;;;;;5.03;4.10;;;;;;;;;;4982620;28;20109;-57
2022/03/08 06:00:33;;;;;;;6.00;4.20;;;;;;;;;;4982838;28;20030;-61
2022/03/08 06:02:58;;;;;;;5.27;4.23;;;;;;;;;;4983174;28;20165;-60
2022/03/08 06:05:23;;;;;;;5.53;4.37;;;;;;;;;;4983448;28;20117;-59
2022/03/08 06:07:49;;;;;;;5.10;3.92;;;;;;;;;;4983209;28;20169;-60
2022/03/08 06:10:14;;;;;;;5.37;3.97;;;;;;;;;;4983358;28;20026;-58
2022/03/08 06:12:41;;;;;;;5.22;4.07;;;;;;;;;;4983177;28;20272;-61
2022/03/08 06:15:06;;;;;;;5.63;4.38;;;;;;;;;;4977934;28;20019;-60
2022/03/08 06:17:32;;;;;;;5.30;4.00;;;;;;;;;;4963603;28;20378;-64
2022/03/08 06:19:57;;;;;;;5.47;4.15;;;;;;;;;;4981653;28;20490;-61
2022/03/08 06:22:22;;;;;;;4.80;3.80;;;;;;;;;;4982100;28;20026;-64
2022/03/08 06:24:47;;;;;;;4.30;3.60;;;;;;;;;;4982102;28;20133;-61
2022/03/08 06:27:13;;;;;;;5.50;3.93;;;;;;;;;;4981647;28;20117;-60
2022/03/08 06:29:38;;;;;;;4.63;3.90;;;;;;;;;;4982100;28;20273;-60
2022/03/08 06:32:04;;;;;;;4.63;3.58;;;;;;;;;;4980974;28;20041;-59
2022/03/08 06:34:29;;;;;;;5.43;4.20;;;;;;;;;;4981553;28;20033;-58
2022/03/08 06:36:54;;;;;;;4.60;3.70;;;;;;;;;;4981879;28;20025;-58
2022/03/08 06:39:20;;;;;;;5.10;4.03;;;;;;;;;;4978627;28;20038;-57
2022/03/08 06:41:45;;;;;;;5.00;3.70;;;;;;;;;;4974469;28;20274;-59
2022/03/08 06:44:11;;;;;;;5.70;4.32;;;;;;;;;;4971992;28;20024;-59
2022/03/08 06:46:38;;;;;;;6.40;4.63;;;;;;;;;;4980076;28;20037;-60
2022/03/08 06:49:03;;;;;;;5.63;4.20;;;;;;;;;;4980907;28;20034;-59
2022/03/08 06:51:28;;;;;;;4.80;4.05;;;;;;;;;;4980628;28;20510;-59
2022/03/08 06:53:54;;;;;;;5.25;3.90;;;;;;;;;;4979879;28;20034;-59
2022/03/08 06:56:19;;;;;;;6.47;4.20;;;;;;;;;;4981379;28;20138;-60
2022/03/08 06:58:44;;;;;;;5.67;4.23;;;;;;;;;;4981232;28;20065;-59
2022/03/08 07:01:09;;;;;;;4.70;3.80;;;;;;;;;;4980901;28;21035;-58
2022/03/08 07:03:35;;;;;;;4.63;3.90;;;;;;;;;;4976818;28;20160;-61
2022/03/08 07:06:00;;;;;;;4.85;3.85;;;;;;;;;;4964146;28;20816;-59
2022/03/08 07:08:25;;;;;;;5.90;4.20;;;;;;;;;;4974174;28;20030;-56
2022/03/08 07:10:50;;;;;;;4.73;3.77;;;;;;;;;;4966548;28;20110;-59
2022/03/08 07:13:16;;;;;;;5.10;3.90;;;;;;;;;;4961176;28;20282;-60
2022/03/08 07:15:41;;;;;;;5.75;4.30;;;;;;;;;;4968389;28;21225;-59
2022/03/08 07:18:06;;;;;;;5.30;4.10;;;;;;;;;;4975595;28;20424;-64
2022/03/08 07:20:31;;;;;;;5.03;4.35;;;;;;;;;;4978322;28;20026;-57
2022/03/08 07:22:57;;;;;;;6.37;4.20;;;;;;;;;;4979079;28;20065;-60
2022/03/08 07:25:22;;;;;;;6.13;4.82;;;;;;;;;;4974662;28;20030;-59
2022/03/08 07:27:48;;;;;;;5.43;4.05;;;;;;;;;;4976078;28;20037;-60
2022/03/08 07:30:13;;;;;;;5.60;4.17;;;;;;;;;;4962723;28;20038;-59
2022/03/08 07:32:38;;;;;;;6.17;4.40;;;;;;;;;;4963335;28;20034;-61
2022/03/08 07:35:04;;;;;;;6.00;4.37;;;;;;;;;;4971618;28;20026;-59
2022/03/08 07:37:33;;;;;;;5.55;4.40;;;;;;;;;;4980465;28;20279;-60
2022/03/08 07:39:58;;;;;;;7.30;4.90;;;;;;;;;;4980554;28;20034;-60
2022/03/08 07:42:25;;;;;;;7.63;5.07;;;;;;;;;;4963131;28;20029;-58
2022/03/08 07:44:50;;;;;;;6.38;4.90;;;;;;;;;;4967260;28;20110;-60
2022/03/08 07:47:16;;;;;;;6.50;4.85;;;;;;;;;;4976342;28;20113;-60
2022/03/08 07:49:41;;;;;;;7.30;5.20;;;;;;;;;;4980087;28;20026;-59
2022/03/08 07:52:06;;;;;;;6.83;5.10;;;;;;;;;;4980006;28;20269;-60
2022/03/08 07:54:31;;;;;;;6.50;4.90;;;;;;;;;;4978518;28;20037;-59
2022/03/08 07:56:57;;;;;;;7.23;5.33;;;;;;;;;;4979806;28;20057;-58
2022/03/08 07:59:22;;;;;;;8.53;5.20;;;;;;;;;;4980051;28;20054;-58
2022/03/08 08:01:48;;;;;;;6.50;4.93;;;;;;;;;;4972732;28;20361;-57
2022/03/08 08:04:13;;;;;;;6.55;4.35;;;;;;;;;;4974583;28;20041;-60
2022/03/08 08:06:38;;;;;;;7.32;5.20;;;;;;;;;;4980433;28;20094;-59
2022/03/08 08:09:03;;;;;;;6.90;5.03;;;;;;;;;;4966130;28;20465;-59
2022/03/08 08:11:28;;;;;;;7.20;5.10;;;;;;;;;;4974844;28;20680;-57
2022/03/08 08:13:54;;;;;;;6.03;4.50;;;;;;;;;;4980794;28;20030;-60
2022/03/08 08:16:20;;;;;;;7.47;5.60;;;;;;;;;;4964121;28;20286;-59
2022/03/08 08:18:45;;;;;;;7.45;5.07;;;;;;;;;;4960101;28;20485;-60
2022/03/08 08:21:10;;;;;;;6.77;4.73;;;;;;;;;;4960442;28;20453;-61
2022/03/08 08:23:35;;;;;;;8.27;5.18;;;;;;;;;;4959440;28;20258;-59
2022/03/08 08:26:01;;;;;;;6.83;5.20;;;;;;;;;;4959908;28;20448;-59
2022/03/08 08:28:26;;;;;;;8.27;5.47;;;;;;;;;;4959795;28;20849;-59
2022/03/08 08:30:51;;;;;;;7.07;5.00;;;;;;;;;;4961379;28;20517;-59
2022/03/08 08:33:16;;;;;;;7.77;5.47;;;;;;;;;;4959056;28;20493;-60
2022/03/08 08:35:42;;;;;;;10.20;5.40;;;;;;;;;;4959309;28;20336;-59
2022/03/08 08:38:07;;;;;;;7.10;5.28;;;;;;;;;;4958913;28;20038;-59
2022/03/08 08:40:34;;;;;;;7.45;5.50;;;;;;;;;;4960224;28;20405;-60
2022/03/08 08:43:00;;;;;;;6.63;4.72;;;;;;;;;;4959848;28;20727;-58
2022/03/08 08:45:25;;;;;;;7.07;5.20;;;;;;;;;;4958576;28;20030;-60
2022/03/08 08:47:50;;;;;;;7.20;5.40;;;;;;;;;;4967522;28;20026;-58
2022/03/08 08:50:15;;;;;;;7.43;5.83;;;;;;;;;;4962145;28;20038;-59
2022/03/08 08:52:41;;;;;;;7.40;5.23;;;;;;;;;;4959617;28;20266;-60
2022/03/08 08:55:06;;;;;;;7.73;5.43;;;;;;;;;;4964394;28;21213;-60
2022/03/08 08:57:32;;;;;;;8.38;5.35;;;;;;;;;;4959310;28;20285;-60
2022/03/08 08:59:58;;;;;;;7.88;5.10;;;;;;;;;;4959319;28;20046;-59
2022/03/08 09:02:23;;;;;;;7.47;5.10;;;;;;;;;;4959452;28;20037;-59
2022/03/08 09:04:48;;;;;;;8.50;5.30;;;;;;;;;;4962181;28;20293;-59
2022/03/08 09:07:13;;;;;;;7.67;4.90;;;;;;;;;;4965922;28;20416;-59
2022/03/08 09:09:39;;;;;;;7.37;5.13;;;;;;;;;;4960013;28;20457;-60
2022/03/08 09:12:04;;;;;;;8.02;5.38;;;;;;;;;;4958689;28;20696;-59
2022/03/08 09:14:29;;;;;;;6.90;5.28;;;;;;;;;;4963476;28;20375;-60
2022/03/08 09:16:55;;;;;;;8.57;5.30;;;;;;;;;;4959409;28;20113;-60
2022/03/08 09:19:21;;;;;;;8.18;5.45;;;;;;;;;;4962574;28;20058;-59
2022/03/08 09:21:47;;;;;;;8.57;5.40;;;;;;;;;;4963078;28;20089;-58
2022/03/08 09:24:12;;;;;;;7.83;5.33;;;;;;;;;;4968057;28;20017;-60
2022/03/08 09:26:37;;;;;;;8.13;5.47;;;;;;;;;;4964982;28;20309;-59
2022/03/08 09:29:02;;;;;;;7.50;5.03;;;;;;;;;;4967845;28;20457;-59
2022/03/08 09:31:28;;;;;;;7.80;5.80;;;;;;;;;;4964908;28;20266;-58
2022/03/08 09:33:53;;;;;;;8.75;5.70;;;;;;;;;;4965973;28;20061;-60
2022/03/08 09:36:18;;;;;;;8.50;6.00;;;;;;;;;;4967346;28;20108;-59
2022/03/08 09:38:44;;;;;;;7.55;5.38;;;;;;;;;;4967648;28;20037;-60
2022/03/08 09:41:10;;;;;;;7.95;5.28;;;;;;;;;;4965399;28;20026;-60
2022/03/08 09:43:36;;;;;;;8.57;5.22;;;;;;;;;;4976163;28;20288;-58
2022/03/08 09:46:01;;;;;;;7.80;5.78;;;;;;;;;;4982473;28;20376;-59
2022/03/08 09:48:26;;;;;;;9.48;5.97;;;;;;;;;;4982504;28;20030;-59
2022/03/08 09:50:52;;;;;;;7.90;6.20;;;;;;;;;;4982604;28;21232;-59
2022/03/08 09:53:17;;;;;;;9.07;6.60;;;;;;;;;;4973504;28;20582;-58
2022/03/08 09:55:42;;;;;;;9.00;6.17;;;;;;;;;;4963986;28;20031;-60
2022/03/08 09:58:07;;;;;;;9.57;6.50;;;;;;;;;;4964948;28;20038;-58
2022/03/08 10:00:33;;;;;;;8.85;6.20;;;;;;;;;;4965066;28;20034;-55
2022/03/08 10:02:58;;;;;;;10.23;6.50;;;;;;;;;;4967738;28;20019;-59
2022/03/08 10:05:25;;;;;;;8.43;6.30;;;;;;;;;;4975765;28;20014;-52
2022/03/08 10:08:03;;;;;;;9.82;6.40;;;;;;;;;;4982351;28;20026;-59
2022/03/08 10:10:31;;;;;;;7.57;5.72;;;;;;;;;;4982049;28;20038;-54
2022/03/08 10:12:57;;;;;;;9.20;5.75;;;;;;;;;;4981413;28;20041;-55
2022/03/08 10:15:22;;;;;;;8.75;5.65;;;;;;;;;;4981179;28;20049;-56
2022/03/08 10:17:47;;;;;;;7.23;5.17;;;;;;;;;;4981010;28;20030;-62
2022/03/08 10:20:12;;;;;;;8.47;5.97;;;;;;;;;;4981885;28;20404;-62
2022/03/08 10:22:38;;;;;;;9.15;6.47;;;;;;;;;;4982200;28;20026;-55
2022/03/08 10:25:14;;;;;;;9.60;6.47;;;;;;;;;;4981614;28;20042;-56
2022/03/08 10:27:51;;;;;;;8.93;5.45;;;;;;;;;;4982015;28;20030;-59
2022/03/08 10:30:17;;;;;;;8.27;5.55;;;;;;;;;;4981763;28;20180;-59
2022/03/08 10:32:42;;;;;;;7.87;5.37;;;;;;;;;;4981926;28;20607;-60
2022/03/08 10:35:08;;;;;;;8.90;6.10;;;;;;;;;;4981431;28;20304;-60
2022/03/08 10:37:36;;;;;;;8.57;6.10;;;;;;;;;;4981047;28;20030;-60
2022/03/08 10:40:06;;;;;;;7.82;5.75;;;;;;;;;;4977880;28;20485;-60
2022/03/08 10:42:32;;;;;;;7.95;5.38;;;;;;;;;;4981475;28;20034;-60
2022/03/08 10:45:04;;;;;;;8.93;6.03;;;;;;;;;;4981138;28;20034;-58
2022/03/08 10:47:42;;;;;;;7.43;6.07;;;;;;;;;;4980541;28;20031;-59
2022/03/08 10:50:07;;;;;;;9.18;6.03;;;;;;;;;;4980069;28;20022;-56
2022/03/08 10:52:33;;;;;;;9.00;6.20;;;;;;;;;;4980045;28;20022;-58
2022/03/08 10:55:17;;;;;;;8.15;6.35;;;;;;;;;;4979697;28;20500;-57
2022/03/08 10:57:44;;;;;;;8.77;6.10;;;;;;;;;;4980487;28;20413;-57
2022/03/08 11:00:14;;;;;;;9.45;6.25;;;;;;;;;;4979771;28;20034;-56
2022/03/08 11:02:39;;;;;;;;;;;;;;;;;;4978656;28;20026;-60
2022/03/08 11:05:08;;;;;;;10.10;6.72;;;;;;;;;;4975453;28;19910;-59
2022/03/08 11:07:36;;;;;;;9.25;6.47;;;;;;;;;;4961412;28;20027;-58
2022/03/08 11:10:02;;;;;;;9.57;6.68;;;;;;;;;;4978601;28;20117;-56
2022/03/08 11:12:28;;;;;;;9.43;6.75;;;;;;;;;;4980382;28;20045;-59
2022/03/08 11:14:53;;;;;;;11.30;7.40;;;;;;;;;;4979051;28;20061;-57
2022/03/08 11:17:18;;;;;;;11.43;7.47;;;;;;;;;;4980500;28;20304;-57
2022/03/08 11:19:43;;;;;;;10.87;6.63;;;;;;;;;;4978803;28;20898;-52
2022/03/08 11:22:08;;;;;;;11.97;6.30;;;;;;;;;;4981073;28;20126;-62
2022/03/08 11:24:35;;;;;;;9.07;6.40;;;;;;;;;;4978531;28;20093;-60
2022/03/08 11:27:01;;;;;;;9.57;6.97;;;;;;;;;;4978835;28;20026;-57
2022/03/08 11:29:26;;;;;;;8.30;5.82;;;;;;;;;;4976612;28;20535;-59
2022/03/08 11:31:51;;;;;;;9.87;6.70;;;;;;;;;;4975697;28;20023;-61
2022/03/08 11:34:18;;;;;;;9.93;6.63;;;;;;;;;;4978778;28;20645;-62
2022/03/08 11:36:51;;;;;;;10.60;6.72;;;;;;;;;;4980559;28;20017;-60
2022/03/08 11:39:23;;;;;;;8.85;6.30;;;;;;;;;;4979609;28;20117;-60
2022/03/08 11:41:52;;;;;;;10.02;6.60;;;;;;;;;;4978305;28;20026;-61
2022/03/08 11:44:21;;;;;;;8.48;6.45;;;;;;;;;;4990175;28;20073;-61
2022/03/08 11:47:07;;;;;;;9.05;6.55;;;;;;;;;;4982888;28;20023;-61
2022/03/08 11:49:51;;;;;;;9.80;6.57;;;;;;;;;;4972309;28;20049;-61
2022/03/08 11:52:17;;;;;;;10.63;7.13;;;;;;;;;;4972659;28;20030;-61
2022/03/08 11:54:50;;;;;;;9.43;7.00;;;;;;;;;;4980313;28;20042;-61
2022/03/08 11:57:18;;;;;;;9.77;6.90;;;;;;;;;;4980213;28;20034;-59
2022/03/08 12:00:03;;;;;;;11.18;7.10;;;;;;;;;;4979201;28;20117;-61
2022/03/08 12:02:29;;;;;;;9.20;7.00;;;;;;;;;;4980738;28;20433;-62
2022/03/08 12:04:54;;;;;;;11.40;7.35;;;;;;;;;;4978671;28;20106;-60
2022/03/08 12:07:23;;;;;;;11.40;7.65;;;;;;;;;;4980508;28;20075;-59
2022/03/08 12:09:51;;;;;;;9.85;7.50;;;;;;;;;;4980642;28;20030;-62
2022/03/08 12:12:18;;;;;;;10.05;7.38;;;;;;;;;;4978947;28;20074;-61
2022/03/08 12:14:44;;;;;;;10.27;7.15;;;;;;;;;;4978518;28;20076;-61
2022/03/08 12:17:14;;;;;;;10.82;7.43;;;;;;;;;;4979949;28;20879;-60
2022/03/08 12:19:46;;;;;;;10.02;6.90;;;;;;;;;;4980322;28;20038;-60
2022/03/08 12:22:20;;;;;;;11.02;7.30;;;;;;;;;;4973670;28;20018;-59
2022/03/08 12:24:49;;;;;;;11.50;7.60;;;;;;;;;;4973278;28;20045;-61
2022/03/08 12:27:16;;;;;;;10.47;7.60;;;;;;;;;;4976165;28;20018;-60
2022/03/08 12:29:50;;;;;;;12.55;8.43;;;;;;;;;;4979998;28;20568;-60
2022/03/08 12:32:22;;;;;;;11.05;7.45;;;;;;;;;;4978496;28;20030;-61
2022/03/08 12:34:48;;;;;;;11.27;8.02;;;;;;;;;;4978703;28;20030;-62
2022/03/08 12:37:16;;;;;;;10.80;7.50;;;;;;;;;;4978274;28;20038;-61
2022/03/08 12:39:50;;;;;;;11.00;7.78;;;;;;;;;;4980056;28;20555;-61
2022/03/08 12:42:19;;;;;;;12.68;8.05;;;;;;;;;;4979974;28;20054;-59
2022/03/08 12:45:08;;;;;;;12.70;8.32;;;;;;;;;;4978351;28;20058;-62
2022/03/08 12:47:38;;;;;;;12.40;8.30;;;;;;;;;;4977036;28;20527;-61
2022/03/08 12:50:03;;;;;;;;;;;;;;;;;;4980023;28;20019;-61
2022/03/08 12:52:28;;;;;;;13.63;8.50;;;;;;;;;;4967435;23;20188;-51
2022/03/08 12:54:54;;;;;;;12.48;8.63;;;;;;;;;;4966757;28;20034;-50
2022/03/08 12:57:19;;;;;;;13.05;8.70;;;;;;;;;;4984121;28;20049;-51
2022/03/08 12:59:49;;;;;;;13.20;8.40;;;;;;;;;;4984371;28;20036;-52
2022/03/08 13:02:14;;;;;;;11.65;8.23;;;;;;;;;;4989102;28;20049;-51
2022/03/08 13:04:39;;;;;;;12.63;8.60;;;;;;;;;;4991873;28;20034;-51
2022/03/08 13:07:08;;;;;;;12.10;8.38;;;;;;;;;;4990210;28;20505;-52
2022/03/08 13:09:48;;;;;;;11.70;8.43;;;;;;;;;;4985131;28;20568;-51
2022/03/08 13:12:20;;;;;;;13.43;8.35;;;;;;;;;;4990919;28;20034;-52
2022/03/08 13:15:04;;;;;;;13.40;8.98;;;;;;;;;;4989766;28;20090;-51
2022/03/08 13:17:29;;;;;;;11.10;8.15;;;;;;;;;;4977455;28;20023;-51
2022/03/08 13:19:54;;;;;;;12.25;7.95;;;;;;;;;;4983876;28;20034;-49
2022/03/08 13:22:19;;;;;;;10.90;8.00;;;;;;;;;;4988394;28;20599;-51
2022/03/08 13:25:04;;;;;;;11.87;7.87;;;;;;;;;;4988471;28;20038;-51
2022/03/08 13:27:43;;;;;;;12.15;8.45;;;;;;;;;;4988699;28;20148;-50
2022/03/08 13:30:15;;;;;;;11.68;8.38;;;;;;;;;;4984293;28;20477;-51
2022/03/08 13:32:41;;;;;;;12.05;8.57;;;;;;;;;;4985092;28;20022;-51
2022/03/08 13:35:06;;;;;;;11.97;8.40;;;;;;;;;;4984571;28;20030;-52
2022/03/08 13:37:47;;;;;;;11.57;8.45;;;;;;;;;;4964456;28;20023;-50
2022/03/08 13:40:26;;;;;;;17.30;13.82;;;;;;;;;;4979250;28;20049;-53
2022/03/08 13:42:51;;;;;;;13.57;9.88;;;;;;;;;;4980998;28;20477;-51
2022/03/08 13:45:16;;;;;;;12.10;8.57;;;;;;;;;;4983732;28;20029;-51
2022/03/08 13:47:42;;;;;;;12.10;8.25;;;;;;;;;;4983055;28;20709;-51
2022/03/08 13:50:07;;;;;;;11.40;8.48;;;;;;;;;;4982845;28;20761;-52
2022/03/08 13:52:33;;;;;;;12.05;8.68;;;;;;;;;;4995521;28;20058;-51
2022/03/08 13:54:59;;;;;;;11.55;7.88;;;;;;;;;;4982040;28;20045;-50
2022/03/08 13:57:24;;;;;;;10.80;7.80;;;;;;;;;;4982148;28;21314;-53
2022/03/08 13:59:49;;;;;;;11.57;8.10;;;;;;;;;;4982084;28;20428;-51
2022/03/08 14:02:15;;;;;;;9.90;7.60;;;;;;;;;;4981617;28;20030;-52
2022/03/08 14:04:40;;;;;;;11.10;7.88;;;;;;;;;;4981870;28;20089;-50
2022/03/08 14:07:06;;;;;;;11.23;7.72;;;;;;;;;;4982253;28;20058;-52
2022/03/08 14:09:31;;;;;;;10.63;7.60;;;;;;;;;;4982492;28;20550;-52
2022/03/08 14:11:58;;;;;;;9.63;7.30;;;;;;;;;;4981303;28;20019;-51
2022/03/08 14:14:24;;;;;;;11.85;8.18;;;;;;;;;;4982333;28;20058;-52
2022/03/08 14:16:50;;;;;;;10.90;8.00;;;;;;;;;;4982478;28;20130;-51
2022/03/08 14:19:16;;;;;;;11.25;7.45;;;;;;;;;;4982569;28;20034;-52
2022/03/08 14:21:42;;;;;;;10.75;7.30;;;;;;;;;;4982602;28;20948;-51
2022/03/08 14:24:11;;;;;;;10.10;7.32;;;;;;;;;;4982503;28;20040;-52
2022/03/08 14:26:38;;;;;;;11.55;7.95;;;;;;;;;;4982689;28;20029;-52
2022/03/08 14:29:09;;;;;;;9.88;7.30;;;;;;;;;;4981462;28;20114;-52
2022/03/08 14:31:35;;;;;;;11.27;7.95;;;;;;;;;;4982572;28;20476;-51
2022/03/08 14:34:05;;;;;;;10.80;7.60;;;;;;;;;;4982772;28;20205;-51
2022/03/08 14:36:46;;;;;;;11.32;7.72;;;;;;;;;;4981122;28;20037;-53